sensor_id;sensor_type;location;lat;lon;timestamp;P1;durP1;ratioP1;P2;durP2;ratioP2
20322;SDS011;10319;52.206;20.996;2022-11-20T00:02:07;40.47;;;15.83;;
20322;SDS011;10319;52.206;20.996;2022-11-20T00:04:33;40.77;;;15.83;;
20322;SDS011;10319;52.206;20.996;2022-11-20T00:06:58;42.63;;;16.80;;
20322;SDS011;10319;52.206;20.996;2022-11-20T00:09:23;40.70;;;16.30;;
20322;SDS011;10319;52.206;20.996;2022-11-20T00:11:48;39.87;;;16.10;;
20322;SDS011;10319;52.206;20.996;2022-11-20T00:14:13;42.83;;;16.30;;
20322;SDS011;10319;52.206;20.996;2022-11-20T00:16:38;41.70;;;16.40;;
20322;SDS011;10319;52.206;20.996;2022-11-20T00:19:04;43.77;;;16.53;;
20322;SDS011;10319;52.206;20.996;2022-11-20T00:21:29;42.17;;;16.20;;
20322;SDS011;10319;52.206;20.996;2022-11-20T00:23:55;39.77;;;14.97;;
20322;SDS011;10319;52.206;20.996;2022-11-20T00:26:21;40.90;;;15.97;;
20322;SDS011;10319;52.206;20.996;2022-11-20T00:28:50;41.27;;;15.73;;
20322;SDS011;10319;52.206;20.996;2022-11-20T00:31:16;40.67;;;15.40;;
20322;SDS011;10319;52.206;20.996;2022-11-20T00:33:42;41.37;;;16.00;;
20322;SDS011;10319;52.206;20.996;2022-11-20T00:36:08;40.40;;;16.90;;
20322;SDS011;10319;52.206;20.996;2022-11-20T00:38:34;38.13;;;16.13;;
20322;SDS011;10319;52.206;20.996;2022-11-20T00:41:00;43.30;;;17.67;;
20322;SDS011;10319;52.206;20.996;2022-11-20T00:43:26;39.43;;;15.57;;
20322;SDS011;10319;52.206;20.996;2022-11-20T00:46:01;41.30;;;16.50;;
20322;SDS011;10319;52.206;20.996;2022-11-20T00:48:27;42.97;;;16.53;;
20322;SDS011;10319;52.206;20.996;2022-11-20T00:50:53;38.90;;;15.43;;
20322;SDS011;10319;52.206;20.996;2022-11-20T00:53:18;40.70;;;16.07;;
20322;SDS011;10319;52.206;20.996;2022-11-20T00:55:51;40.37;;;15.93;;
20322;SDS011;10319;52.206;20.996;2022-11-20T00:58:17;40.10;;;15.43;;
20322;SDS011;10319;52.206;20.996;2022-11-20T01:00:42;41.87;;;15.80;;
20322;SDS011;10319;52.206;20.996;2022-11-20T01:03:07;41.77;;;15.73;;
20322;SDS011;10319;52.206;20.996;2022-11-20T01:05:34;40.33;;;16.17;;
20322;SDS011;10319;52.206;20.996;2022-11-20T01:07:59;40.23;;;16.30;;
20322;SDS011;10319;52.206;20.996;2022-11-20T01:10:24;37.43;;;15.23;;
20322;SDS011;10319;52.206;20.996;2022-11-20T01:12:49;38.67;;;15.47;;
20322;SDS011;10319;52.206;20.996;2022-11-20T01:15:34;42.30;;;15.87;;
20322;SDS011;10319;52.206;20.996;2022-11-20T01:18:01;39.70;;;15.63;;
20322;SDS011;10319;52.206;20.996;2022-11-20T01:20:26;41.30;;;16.23;;
20322;SDS011;10319;52.206;20.996;2022-11-20T01:22:51;40.67;;;15.17;;
20322;SDS011;10319;52.206;20.996;2022-11-20T01:25:16;39.00;;;15.47;;
20322;SDS011;10319;52.206;20.996;2022-11-20T01:27:42;42.57;;;16.43;;
20322;SDS011;10319;52.206;20.996;2022-11-20T01:30:07;39.70;;;15.70;;
20322;SDS011;10319;52.206;20.996;2022-11-20T01:32:32;35.83;;;14.37;;
20322;SDS011;10319;52.206;20.996;2022-11-20T01:34:57;38.57;;;15.40;;
20322;SDS011;10319;52.206;20.996;2022-11-20T01:37:23;38.70;;;15.60;;
20322;SDS011;10319;52.206;20.996;2022-11-20T01:39:48;41.50;;;15.23;;
20322;SDS011;10319;52.206;20.996;2022-11-20T01:42:13;40.03;;;14.90;;
20322;SDS011;10319;52.206;20.996;2022-11-20T01:44:58;39.40;;;15.40;;
20322;SDS011;10319;52.206;20.996;2022-11-20T01:47:25;40.63;;;15.70;;
20322;SDS011;10319;52.206;20.996;2022-11-20T01:49:55;42.33;;;15.60;;
20322;SDS011;10319;52.206;20.996;2022-11-20T01:52:26;36.73;;;14.50;;
20322;SDS011;10319;52.206;20.996;2022-11-20T01:54:59;37.77;;;15.70;;
20322;SDS011;10319;52.206;20.996;2022-11-20T01:57:25;37.47;;;15.10;;
20322;SDS011;10319;52.206;20.996;2022-11-20T01:59:54;35.23;;;13.83;;
20322;SDS011;10319;52.206;20.996;2022-11-20T02:02:22;37.80;;;14.13;;
20322;SDS011;10319;52.206;20.996;2022-11-20T02:04:48;39.43;;;14.63;;
20322;SDS011;10319;52.206;20.996;2022-11-20T02:07:14;38.10;;;15.43;;
20322;SDS011;10319;52.206;20.996;2022-11-20T02:09:39;40.40;;;15.77;;
20322;SDS011;10319;52.206;20.996;2022-11-20T02:12:04;39.63;;;15.60;;
20322;SDS011;10319;52.206;20.996;2022-11-20T02:14:30;38.07;;;15.67;;
20322;SDS011;10319;52.206;20.996;2022-11-20T02:16:55;39.77;;;15.53;;
20322;SDS011;10319;52.206;20.996;2022-11-20T02:22:05;38.77;;;15.13;;
20322;SDS011;10319;52.206;20.996;2022-11-20T02:24:33;38.47;;;15.40;;
20322;SDS011;10319;52.206;20.996;2022-11-20T02:27:02;40.60;;;16.17;;
20322;SDS011;10319;52.206;20.996;2022-11-20T02:29:32;41.67;;;15.20;;
20322;SDS011;10319;52.206;20.996;2022-11-20T02:31:59;39.93;;;15.73;;
20322;SDS011;10319;52.206;20.996;2022-11-20T02:34:25;37.50;;;15.50;;
20322;SDS011;10319;52.206;20.996;2022-11-20T02:36:50;36.63;;;15.57;;
20322;SDS011;10319;52.206;20.996;2022-11-20T02:39:17;40.47;;;15.97;;
20322;SDS011;10319;52.206;20.996;2022-11-20T02:41:42;40.43;;;16.63;;
20322;SDS011;10319;52.206;20.996;2022-11-20T02:44:07;43.70;;;16.23;;
20322;SDS011;10319;52.206;20.996;2022-11-20T02:46:33;36.17;;;14.90;;
20322;SDS011;10319;52.206;20.996;2022-11-20T02:48:59;40.50;;;16.80;;
20322;SDS011;10319;52.206;20.996;2022-11-20T02:51:25;38.77;;;15.33;;
20322;SDS011;10319;52.206;20.996;2022-11-20T02:53:50;40.90;;;16.53;;
20322;SDS011;10319;52.206;20.996;2022-11-20T02:56:15;40.77;;;16.50;;
20322;SDS011;10319;52.206;20.996;2022-11-20T02:58:40;40.23;;;16.07;;
20322;SDS011;10319;52.206;20.996;2022-11-20T03:01:06;40.90;;;16.00;;
20322;SDS011;10319;52.206;20.996;2022-11-20T03:03:31;44.90;;;16.37;;
20322;SDS011;10319;52.206;20.996;2022-11-20T03:05:58;41.00;;;17.07;;
20322;SDS011;10319;52.206;20.996;2022-11-20T03:08:23;38.60;;;16.27;;
20322;SDS011;10319;52.206;20.996;2022-11-20T03:10:48;38.30;;;15.00;;
20322;SDS011;10319;52.206;20.996;2022-11-20T03:13:14;44.30;;;17.20;;
20322;SDS011;10319;52.206;20.996;2022-11-20T03:15:39;43.63;;;17.97;;
20322;SDS011;10319;52.206;20.996;2022-11-20T03:18:04;40.63;;;16.07;;
20322;SDS011;10319;52.206;20.996;2022-11-20T03:20:29;39.20;;;16.03;;
20322;SDS011;10319;52.206;20.996;2022-11-20T03:22:54;44.03;;;17.60;;
20322;SDS011;10319;52.206;20.996;2022-11-20T03:25:20;40.03;;;16.33;;
20322;SDS011;10319;52.206;20.996;2022-11-20T03:27:45;42.20;;;16.90;;
20322;SDS011;10319;52.206;20.996;2022-11-20T03:30:10;42.43;;;16.67;;
20322;SDS011;10319;52.206;20.996;2022-11-20T03:32:36;39.07;;;16.23;;
20322;SDS011;10319;52.206;20.996;2022-11-20T03:35:01;43.33;;;17.10;;
20322;SDS011;10319;52.206;20.996;2022-11-20T03:37:26;43.17;;;17.60;;
20322;SDS011;10319;52.206;20.996;2022-11-20T03:39:52;44.23;;;17.50;;
20322;SDS011;10319;52.206;20.996;2022-11-20T03:42:17;47.27;;;17.93;;
20322;SDS011;10319;52.206;20.996;2022-11-20T03:45:15;39.93;;;16.97;;
20322;SDS011;10319;52.206;20.996;2022-11-20T03:47:40;41.30;;;17.10;;
20322;SDS011;10319;52.206;20.996;2022-11-20T03:50:06;47.77;;;17.80;;
20322;SDS011;10319;52.206;20.996;2022-11-20T03:52:31;46.40;;;18.83;;
20322;SDS011;10319;52.206;20.996;2022-11-20T03:54:56;44.73;;;17.83;;
20322;SDS011;10319;52.206;20.996;2022-11-20T03:57:21;41.47;;;16.77;;
20322;SDS011;10319;52.206;20.996;2022-11-20T03:59:47;45.00;;;17.17;;
20322;SDS011;10319;52.206;20.996;2022-11-20T04:02:12;46.80;;;17.90;;
20322;SDS011;10319;52.206;20.996;2022-11-20T04:04:37;43.83;;;17.37;;
20322;SDS011;10319;52.206;20.996;2022-11-20T04:07:02;46.47;;;16.87;;
20322;SDS011;10319;52.206;20.996;2022-11-20T04:09:28;40.77;;;16.97;;
20322;SDS011;10319;52.206;20.996;2022-11-20T04:11:53;44.83;;;18.40;;
20322;SDS011;10319;52.206;20.996;2022-11-20T04:14:18;48.27;;;18.37;;
20322;SDS011;10319;52.206;20.996;2022-11-20T04:16:43;41.80;;;17.97;;
20322;SDS011;10319;52.206;20.996;2022-11-20T04:19:10;45.47;;;17.30;;
20322;SDS011;10319;52.206;20.996;2022-11-20T04:21:36;43.07;;;17.20;;
20322;SDS011;10319;52.206;20.996;2022-11-20T04:24:01;41.53;;;16.90;;
20322;SDS011;10319;52.206;20.996;2022-11-20T04:26:27;42.83;;;17.00;;
20322;SDS011;10319;52.206;20.996;2022-11-20T04:28:53;43.73;;;16.27;;
20322;SDS011;10319;52.206;20.996;2022-11-20T04:31:22;42.13;;;17.40;;
20322;SDS011;10319;52.206;20.996;2022-11-20T04:33:48;44.37;;;17.97;;
20322;SDS011;10319;52.206;20.996;2022-11-20T04:36:14;49.90;;;19.17;;
20322;SDS011;10319;52.206;20.996;2022-11-20T04:38:40;40.33;;;16.90;;
20322;SDS011;10319;52.206;20.996;2022-11-20T04:41:06;44.63;;;17.53;;
20322;SDS011;10319;52.206;20.996;2022-11-20T04:43:31;39.87;;;15.87;;
20322;SDS011;10319;52.206;20.996;2022-11-20T04:45:57;40.23;;;15.93;;
20322;SDS011;10319;52.206;20.996;2022-11-20T04:48:23;40.73;;;15.30;;
20322;SDS011;10319;52.206;20.996;2022-11-20T04:50:48;37.83;;;15.47;;
20322;SDS011;10319;52.206;20.996;2022-11-20T04:53:13;40.20;;;16.00;;
20322;SDS011;10319;52.206;20.996;2022-11-20T04:55:38;40.80;;;15.43;;
20322;SDS011;10319;52.206;20.996;2022-11-20T04:58:04;36.77;;;15.67;;
20322;SDS011;10319;52.206;20.996;2022-11-20T05:00:29;42.00;;;15.23;;
20322;SDS011;10319;52.206;20.996;2022-11-20T05:02:54;39.90;;;15.33;;
20322;SDS011;10319;52.206;20.996;2022-11-20T05:05:19;39.27;;;15.03;;
20322;SDS011;10319;52.206;20.996;2022-11-20T05:07:46;37.00;;;15.97;;
20322;SDS011;10319;52.206;20.996;2022-11-20T05:10:11;36.30;;;14.80;;
20322;SDS011;10319;52.206;20.996;2022-11-20T05:12:36;39.03;;;15.13;;
20322;SDS011;10319;52.206;20.996;2022-11-20T05:15:01;39.80;;;16.20;;
20322;SDS011;10319;52.206;20.996;2022-11-20T05:17:27;39.17;;;15.23;;
20322;SDS011;10319;52.206;20.996;2022-11-20T05:19:52;34.63;;;14.00;;
20322;SDS011;10319;52.206;20.996;2022-11-20T05:22:17;36.63;;;14.90;;
20322;SDS011;10319;52.206;20.996;2022-11-20T05:24:42;41.23;;;16.40;;
20322;SDS011;10319;52.206;20.996;2022-11-20T05:27:08;37.43;;;14.80;;
20322;SDS011;10319;52.206;20.996;2022-11-20T05:29:33;36.20;;;15.23;;
20322;SDS011;10319;52.206;20.996;2022-11-20T05:31:58;39.83;;;14.77;;
20322;SDS011;10319;52.206;20.996;2022-11-20T05:34:23;40.40;;;15.60;;
20322;SDS011;10319;52.206;20.996;2022-11-20T05:36:48;40.30;;;15.47;;
20322;SDS011;10319;52.206;20.996;2022-11-20T05:39:13;40.17;;;15.70;;
20322;SDS011;10319;52.206;20.996;2022-11-20T05:41:39;38.00;;;15.33;;
20322;SDS011;10319;52.206;20.996;2022-11-20T05:44:04;39.47;;;15.83;;
20322;SDS011;10319;52.206;20.996;2022-11-20T05:46:29;40.23;;;15.87;;
20322;SDS011;10319;52.206;20.996;2022-11-20T05:48:55;41.50;;;15.70;;
20322;SDS011;10319;52.206;20.996;2022-11-20T05:51:20;40.00;;;15.57;;
20322;SDS011;10319;52.206;20.996;2022-11-20T05:53:45;36.57;;;14.63;;
20322;SDS011;10319;52.206;20.996;2022-11-20T05:56:12;40.03;;;14.80;;
20322;SDS011;10319;52.206;20.996;2022-11-20T05:58:38;39.10;;;15.63;;
20322;SDS011;10319;52.206;20.996;2022-11-20T06:01:07;42.93;;;15.80;;
20322;SDS011;10319;52.206;20.996;2022-11-20T06:03:33;38.03;;;15.00;;
20322;SDS011;10319;52.206;20.996;2022-11-20T06:06:02;40.27;;;15.50;;
20322;SDS011;10319;52.206;20.996;2022-11-20T06:08:27;40.40;;;16.00;;
20322;SDS011;10319;52.206;20.996;2022-11-20T06:10:53;39.13;;;15.63;;
20322;SDS011;10319;52.206;20.996;2022-11-20T06:13:18;37.67;;;15.73;;
20322;SDS011;10319;52.206;20.996;2022-11-20T06:15:49;38.27;;;14.57;;
20322;SDS011;10319;52.206;20.996;2022-11-20T06:18:15;41.87;;;16.07;;
20322;SDS011;10319;52.206;20.996;2022-11-20T06:20:40;39.00;;;15.67;;
20322;SDS011;10319;52.206;20.996;2022-11-20T06:23:05;38.93;;;14.77;;
20322;SDS011;10319;52.206;20.996;2022-11-20T06:25:30;44.17;;;16.33;;
20322;SDS011;10319;52.206;20.996;2022-11-20T06:27:55;35.70;;;15.17;;
20322;SDS011;10319;52.206;20.996;2022-11-20T06:30:21;40.27;;;16.47;;
20322;SDS011;10319;52.206;20.996;2022-11-20T06:32:46;40.67;;;15.93;;
20322;SDS011;10319;52.206;20.996;2022-11-20T06:35:11;35.03;;;14.87;;
20322;SDS011;10319;52.206;20.996;2022-11-20T06:37:36;39.37;;;15.97;;
20322;SDS011;10319;52.206;20.996;2022-11-20T06:40:01;41.13;;;15.23;;
20322;SDS011;10319;52.206;20.996;2022-11-20T06:42:27;39.67;;;15.23;;
20322;SDS011;10319;52.206;20.996;2022-11-20T06:44:52;39.10;;;15.90;;
20322;SDS011;10319;52.206;20.996;2022-11-20T06:47:17;39.37;;;15.60;;
20322;SDS011;10319;52.206;20.996;2022-11-20T06:49:42;40.37;;;16.40;;
20322;SDS011;10319;52.206;20.996;2022-11-20T06:52:07;40.40;;;15.67;;
20322;SDS011;10319;52.206;20.996;2022-11-20T06:54:33;41.70;;;15.87;;
20322;SDS011;10319;52.206;20.996;2022-11-20T06:56:58;45.20;;;16.53;;
20322;SDS011;10319;52.206;20.996;2022-11-20T06:59:23;40.70;;;16.30;;
20322;SDS011;10319;52.206;20.996;2022-11-20T07:01:48;38.03;;;16.07;;
20322;SDS011;10319;52.206;20.996;2022-11-20T07:04:13;36.63;;;15.60;;
20322;SDS011;10319;52.206;20.996;2022-11-20T07:06:39;43.37;;;17.17;;
20322;SDS011;10319;52.206;20.996;2022-11-20T07:09:04;42.87;;;16.23;;
20322;SDS011;10319;52.206;20.996;2022-11-20T07:11:29;37.33;;;14.90;;
20322;SDS011;10319;52.206;20.996;2022-11-20T07:13:54;40.27;;;16.23;;
20322;SDS011;10319;52.206;20.996;2022-11-20T07:16:21;40.20;;;16.43;;
20322;SDS011;10319;52.206;20.996;2022-11-20T07:18:46;40.40;;;16.10;;
20322;SDS011;10319;52.206;20.996;2022-11-20T07:21:11;39.27;;;15.43;;
20322;SDS011;10319;52.206;20.996;2022-11-20T07:23:37;42.07;;;16.07;;
20322;SDS011;10319;52.206;20.996;2022-11-20T07:26:05;39.73;;;15.63;;
20322;SDS011;10319;52.206;20.996;2022-11-20T07:28:30;39.03;;;16.33;;
20322;SDS011;10319;52.206;20.996;2022-11-20T07:30:56;42.47;;;15.90;;
20322;SDS011;10319;52.206;20.996;2022-11-20T07:33:21;38.73;;;15.80;;
20322;SDS011;10319;52.206;20.996;2022-11-20T07:35:46;41.10;;;15.97;;
20322;SDS011;10319;52.206;20.996;2022-11-20T07:38:11;39.87;;;15.80;;
20322;SDS011;10319;52.206;20.996;2022-11-20T07:40:37;40.20;;;16.63;;
20322;SDS011;10319;52.206;20.996;2022-11-20T07:43:02;37.93;;;16.03;;
20322;SDS011;10319;52.206;20.996;2022-11-20T07:45:27;40.43;;;16.73;;
20322;SDS011;10319;52.206;20.996;2022-11-20T07:47:52;42.10;;;17.53;;
20322;SDS011;10319;52.206;20.996;2022-11-20T07:50:18;43.13;;;17.27;;
20322;SDS011;10319;52.206;20.996;2022-11-20T07:52:43;43.37;;;17.30;;
20322;SDS011;10319;52.206;20.996;2022-11-20T07:55:09;40.13;;;17.07;;
20322;SDS011;10319;52.206;20.996;2022-11-20T07:57:34;44.43;;;17.60;;
20322;SDS011;10319;52.206;20.996;2022-11-20T08:00:00;43.57;;;17.37;;
20322;SDS011;10319;52.206;20.996;2022-11-20T08:02:25;41.70;;;17.87;;
20322;SDS011;10319;52.206;20.996;2022-11-20T08:04:50;46.27;;;18.20;;
20322;SDS011;10319;52.206;20.996;2022-11-20T08:07:15;46.10;;;17.40;;
20322;SDS011;10319;52.206;20.996;2022-11-20T08:09:40;43.20;;;17.23;;
20322;SDS011;10319;52.206;20.996;2022-11-20T08:12:06;45.27;;;18.20;;
20322;SDS011;10319;52.206;20.996;2022-11-20T08:14:49;41.03;;;17.77;;
20322;SDS011;10319;52.206;20.996;2022-11-20T08:17:15;45.27;;;18.40;;
20322;SDS011;10319;52.206;20.996;2022-11-20T08:19:40;47.43;;;18.43;;
20322;SDS011;10319;52.206;20.996;2022-11-20T08:22:05;45.80;;;18.33;;
20322;SDS011;10319;52.206;20.996;2022-11-20T08:24:30;42.63;;;18.13;;
20322;SDS011;10319;52.206;20.996;2022-11-20T08:26:58;45.33;;;18.57;;
20322;SDS011;10319;52.206;20.996;2022-11-20T08:29:24;45.13;;;17.77;;
20322;SDS011;10319;52.206;20.996;2022-11-20T08:31:49;41.70;;;18.03;;
20322;SDS011;10319;52.206;20.996;2022-11-20T08:34:14;42.63;;;17.73;;
20322;SDS011;10319;52.206;20.996;2022-11-20T08:36:40;40.60;;;16.93;;
20322;SDS011;10319;52.206;20.996;2022-11-20T08:39:05;43.13;;;18.23;;
20322;SDS011;10319;52.206;20.996;2022-11-20T08:41:30;40.23;;;17.70;;
20322;SDS011;10319;52.206;20.996;2022-11-20T08:43:59;45.33;;;18.33;;
20322;SDS011;10319;52.206;20.996;2022-11-20T08:46:25;42.00;;;18.83;;
20322;SDS011;10319;52.206;20.996;2022-11-20T08:48:51;42.07;;;18.60;;
20322;SDS011;10319;52.206;20.996;2022-11-20T08:51:16;42.60;;;18.43;;
20322;SDS011;10319;52.206;20.996;2022-11-20T08:53:41;40.57;;;18.07;;
20322;SDS011;10319;52.206;20.996;2022-11-20T08:56:07;41.10;;;18.10;;
20322;SDS011;10319;52.206;20.996;2022-11-20T08:58:32;44.37;;;19.07;;
20322;SDS011;10319;52.206;20.996;2022-11-20T09:00:57;45.03;;;18.37;;
20322;SDS011;10319;52.206;20.996;2022-11-20T09:03:22;43.33;;;18.13;;
20322;SDS011;10319;52.206;20.996;2022-11-20T09:05:48;42.10;;;17.93;;
20322;SDS011;10319;52.206;20.996;2022-11-20T09:08:13;38.73;;;17.00;;
20322;SDS011;10319;52.206;20.996;2022-11-20T09:10:38;46.97;;;18.77;;
20322;SDS011;10319;52.206;20.996;2022-11-20T09:13:05;44.03;;;18.43;;
20322;SDS011;10319;52.206;20.996;2022-11-20T09:15:30;42.70;;;19.37;;
20322;SDS011;10319;52.206;20.996;2022-11-20T09:17:57;40.80;;;18.07;;
20322;SDS011;10319;52.206;20.996;2022-11-20T09:20:23;45.30;;;18.47;;
20322;SDS011;10319;52.206;20.996;2022-11-20T09:22:48;45.03;;;18.80;;
20322;SDS011;10319;52.206;20.996;2022-11-20T09:25:13;44.20;;;19.27;;
20322;SDS011;10319;52.206;20.996;2022-11-20T09:27:38;44.47;;;19.60;;
20322;SDS011;10319;52.206;20.996;2022-11-20T09:30:04;41.20;;;18.20;;
20322;SDS011;10319;52.206;20.996;2022-11-20T09:32:29;44.60;;;19.93;;
20322;SDS011;10319;52.206;20.996;2022-11-20T09:34:54;43.27;;;19.33;;
20322;SDS011;10319;52.206;20.996;2022-11-20T09:37:20;43.80;;;18.77;;
20322;SDS011;10319;52.206;20.996;2022-11-20T09:39:45;42.17;;;18.53;;
20322;SDS011;10319;52.206;20.996;2022-11-20T09:42:14;42.30;;;18.93;;
20322;SDS011;10319;52.206;20.996;2022-11-20T09:44:47;48.23;;;19.73;;
20322;SDS011;10319;52.206;20.996;2022-11-20T09:47:21;42.37;;;18.50;;
20322;SDS011;10319;52.206;20.996;2022-11-20T09:55:01;41.37;;;17.67;;
20322;SDS011;10319;52.206;20.996;2022-11-20T09:57:37;38.60;;;17.60;;
20322;SDS011;10319;52.206;20.996;2022-11-20T10:00:03;39.50;;;17.57;;
20322;SDS011;10319;52.206;20.996;2022-11-20T10:02:43;41.40;;;18.70;;
20322;SDS011;10319;52.206;20.996;2022-11-20T10:05:25;40.17;;;18.17;;
20322;SDS011;10319;52.206;20.996;2022-11-20T10:10:31;44.27;;;18.80;;
20322;SDS011;10319;52.206;20.996;2022-11-20T10:15:53;40.70;;;18.00;;
20322;SDS011;10319;52.206;20.996;2022-11-20T10:31:11;41.73;;;18.27;;
20322;SDS011;10319;52.206;20.996;2022-11-20T10:33:42;37.53;;;17.37;;
20322;SDS011;10319;52.206;20.996;2022-11-20T10:36:21;41.30;;;18.43;;
20322;SDS011;10319;52.206;20.996;2022-11-20T10:38:50;40.83;;;17.60;;
20322;SDS011;10319;52.206;20.996;2022-11-20T10:41:19;40.90;;;17.77;;
20322;SDS011;10319;52.206;20.996;2022-11-20T10:43:56;39.63;;;17.73;;
20322;SDS011;10319;52.206;20.996;2022-11-20T10:46:24;37.67;;;17.00;;
20322;SDS011;10319;52.206;20.996;2022-11-20T10:48:49;39.60;;;16.77;;
20322;SDS011;10319;52.206;20.996;2022-11-20T11:01:26;39.20;;;16.70;;
20322;SDS011;10319;52.206;20.996;2022-11-20T11:03:52;37.70;;;16.17;;
20322;SDS011;10319;52.206;20.996;2022-11-20T11:06:34;38.37;;;16.07;;
20322;SDS011;10319;52.206;20.996;2022-11-20T11:09:02;39.10;;;16.83;;
20322;SDS011;10319;52.206;20.996;2022-11-20T11:11:30;38.37;;;17.10;;
20322;SDS011;10319;52.206;20.996;2022-11-20T11:14:13;37.53;;;15.67;;
20322;SDS011;10319;52.206;20.996;2022-11-20T11:16:52;37.87;;;17.07;;
20322;SDS011;10319;52.206;20.996;2022-11-20T11:19:17;37.17;;;16.40;;
20322;SDS011;10319;52.206;20.996;2022-11-20T11:21:50;42.10;;;18.23;;
20322;SDS011;10319;52.206;20.996;2022-11-20T11:24:20;38.13;;;16.43;;
20322;SDS011;10319;52.206;20.996;2022-11-20T11:26:56;38.13;;;16.13;;
20322;SDS011;10319;52.206;20.996;2022-11-20T11:29:22;40.13;;;17.27;;
20322;SDS011;10319;52.206;20.996;2022-11-20T11:31:48;37.93;;;16.87;;
20322;SDS011;10319;52.206;20.996;2022-11-20T11:34:16;38.57;;;16.83;;
20322;SDS011;10319;52.206;20.996;2022-11-20T11:36:42;39.47;;;17.23;;
20322;SDS011;10319;52.206;20.996;2022-11-20T11:39:17;37.77;;;16.33;;
20322;SDS011;10319;52.206;20.996;2022-11-20T11:41:45;38.07;;;16.33;;
20322;SDS011;10319;52.206;20.996;2022-11-20T11:44:17;42.03;;;17.03;;
20322;SDS011;10319;52.206;20.996;2022-11-20T11:47:01;38.60;;;15.93;;
20322;SDS011;10319;52.206;20.996;2022-11-20T11:49:27;39.30;;;16.37;;
20322;SDS011;10319;52.206;20.996;2022-11-20T11:54:32;38.77;;;16.50;;
20322;SDS011;10319;52.206;20.996;2022-11-20T11:57:00;39.23;;;16.70;;
20322;SDS011;10319;52.206;20.996;2022-11-20T11:59:30;38.00;;;16.30;;
20322;SDS011;10319;52.206;20.996;2022-11-20T12:01:59;37.97;;;16.77;;
20322;SDS011;10319;52.206;20.996;2022-11-20T12:04:34;39.53;;;16.57;;
20322;SDS011;10319;52.206;20.996;2022-11-20T12:07:38;40.30;;;17.33;;
20322;SDS011;10319;52.206;20.996;2022-11-20T12:09:54;40.67;;;16.77;;
20322;SDS011;10319;52.206;20.996;2022-11-20T12:12:20;35.07;;;15.47;;
20322;SDS011;10319;52.206;20.996;2022-11-20T12:14:47;39.33;;;16.57;;
20322;SDS011;10319;52.206;20.996;2022-11-20T12:17:14;38.60;;;16.07;;
20322;SDS011;10319;52.206;20.996;2022-11-20T12:19:40;38.13;;;16.80;;
20322;SDS011;10319;52.206;20.996;2022-11-20T12:25:09;36.47;;;16.27;;
20322;SDS011;10319;52.206;20.996;2022-11-20T12:27:39;36.60;;;14.83;;
20322;SDS011;10319;52.206;20.996;2022-11-20T12:30:13;34.00;;;15.17;;
20322;SDS011;10319;52.206;20.996;2022-11-20T12:32:55;35.07;;;14.93;;
20322;SDS011;10319;52.206;20.996;2022-11-20T12:43:25;37.40;;;16.00;;
20322;SDS011;10319;52.206;20.996;2022-11-20T12:46:14;34.30;;;15.03;;
20322;SDS011;10319;52.206;20.996;2022-11-20T12:48:52;35.40;;;16.07;;
20322;SDS011;10319;52.206;20.996;2022-11-20T12:51:30;36.27;;;15.20;;
20322;SDS011;10319;52.206;20.996;2022-11-20T12:59:10;37.53;;;15.17;;
20322;SDS011;10319;52.206;20.996;2022-11-20T13:01:46;35.87;;;14.93;;
20322;SDS011;10319;52.206;20.996;2022-11-20T13:06:49;36.80;;;15.43;;
20322;SDS011;10319;52.206;20.996;2022-11-20T13:09:15;34.90;;;15.33;;
20322;SDS011;10319;52.206;20.996;2022-11-20T13:11:56;35.47;;;14.53;;
20322;SDS011;10319;52.206;20.996;2022-11-20T13:14:37;36.27;;;15.47;;
20322;SDS011;10319;52.206;20.996;2022-11-20T13:19:36;35.03;;;14.73;;
20322;SDS011;10319;52.206;20.996;2022-11-20T13:22:02;36.53;;;15.87;;
20322;SDS011;10319;52.206;20.996;2022-11-20T13:24:28;33.33;;;14.17;;
20322;SDS011;10319;52.206;20.996;2022-11-20T13:29:29;35.20;;;15.97;;
20322;SDS011;10319;52.206;20.996;2022-11-20T13:32:13;38.13;;;16.77;;
20322;SDS011;10319;52.206;20.996;2022-11-20T13:34:39;36.57;;;16.50;;
20322;SDS011;10319;52.206;20.996;2022-11-20T13:37:04;39.87;;;17.50;;
20322;SDS011;10319;52.206;20.996;2022-11-20T13:39:34;37.53;;;16.83;;
20322;SDS011;10319;52.206;20.996;2022-11-20T13:42:00;36.67;;;16.53;;
20322;SDS011;10319;52.206;20.996;2022-11-20T13:46:54;42.03;;;17.70;;
20322;SDS011;10319;52.206;20.996;2022-11-20T13:49:38;38.90;;;17.67;;
20322;SDS011;10319;52.206;20.996;2022-11-20T13:59:58;41.47;;;17.37;;
20322;SDS011;10319;52.206;20.996;2022-11-20T14:02:26;41.70;;;17.27;;
20322;SDS011;10319;52.206;20.996;2022-11-20T14:04:52;38.50;;;17.40;;
20322;SDS011;10319;52.206;20.996;2022-11-20T14:07:18;38.67;;;17.37;;
20322;SDS011;10319;52.206;20.996;2022-11-20T14:09:54;40.17;;;17.13;;
20322;SDS011;10319;52.206;20.996;2022-11-20T14:12:21;39.37;;;17.23;;
20322;SDS011;10319;52.206;20.996;2022-11-20T14:14:51;42.80;;;17.67;;
20322;SDS011;10319;52.206;20.996;2022-11-20T14:19:41;42.97;;;18.50;;
20322;SDS011;10319;52.206;20.996;2022-11-20T14:24:33;36.03;;;15.98;;
20322;SDS011;10319;52.206;20.996;2022-11-20T14:26:59;39.33;;;16.83;;
20322;SDS011;10319;52.206;20.996;2022-11-20T14:29:34;37.67;;;16.03;;
20322;SDS011;10319;52.206;20.996;2022-11-20T14:32:00;40.03;;;17.43;;
20322;SDS011;10319;52.206;20.996;2022-11-20T14:34:27;40.63;;;17.63;;
20322;SDS011;10319;52.206;20.996;2022-11-20T14:36:55;42.13;;;18.13;;
20322;SDS011;10319;52.206;20.996;2022-11-20T14:39:21;41.60;;;17.60;;
20322;SDS011;10319;52.206;20.996;2022-11-20T14:41:50;41.57;;;18.40;;
20322;SDS011;10319;52.206;20.996;2022-11-20T14:44:16;44.00;;;17.97;;
20322;SDS011;10319;52.206;20.996;2022-11-20T14:46:41;40.60;;;17.33;;
20322;SDS011;10319;52.206;20.996;2022-11-20T14:49:08;39.37;;;18.00;;
20322;SDS011;10319;52.206;20.996;2022-11-20T14:51:37;39.03;;;17.50;;
20322;SDS011;10319;52.206;20.996;2022-11-20T14:56:34;42.17;;;17.70;;
20322;SDS011;10319;52.206;20.996;2022-11-20T14:58:59;43.50;;;18.27;;
20322;SDS011;10319;52.206;20.996;2022-11-20T15:01:25;38.83;;;17.00;;
20322;SDS011;10319;52.206;20.996;2022-11-20T15:04:02;41.23;;;17.87;;
20322;SDS011;10319;52.206;20.996;2022-11-20T15:06:27;38.23;;;17.10;;
20322;SDS011;10319;52.206;20.996;2022-11-20T15:08:52;40.50;;;18.10;;
20322;SDS011;10319;52.206;20.996;2022-11-20T15:11:18;40.87;;;17.10;;
20322;SDS011;10319;52.206;20.996;2022-11-20T15:13:44;39.27;;;17.73;;
20322;SDS011;10319;52.206;20.996;2022-11-20T15:16:19;37.53;;;16.77;;
20322;SDS011;10319;52.206;20.996;2022-11-20T15:18:47;39.93;;;16.87;;
20322;SDS011;10319;52.206;20.996;2022-11-20T15:21:16;38.57;;;16.73;;
20322;SDS011;10319;52.206;20.996;2022-11-20T15:23:42;39.93;;;17.33;;
20322;SDS011;10319;52.206;20.996;2022-11-20T15:26:08;38.10;;;16.67;;
20322;SDS011;10319;52.206;20.996;2022-11-20T15:28:34;38.60;;;16.43;;
20322;SDS011;10319;52.206;20.996;2022-11-20T15:31:00;37.73;;;17.00;;